SBMN/MAO METAR and TAF weather

Enter ICAO airport designator
Station Type Date Time Source
SBMN METAR 2021/09/25 03:00 UTC NOAA

SBMN 250300Z 18002KT 9999 FEW025TCU 28/25 Q1014


Station Type Date Time Source
SBMN Decoded METAR 2021/09/25 03:00 UTC NOAA

Manaus Aeroporto , Brazil (SBMN) 03-09S 059-59W 84M
Sep 24, 2021 - 11:00 PM EDT / 2021.09.25 0300 UTC
Wind: from the S (180 degrees) at 2 MPH (2 KT):0
Visibility: greater than 7 mile(s):0
Sky conditions: mostly clear
Weather: Towering cumulus clouds observed
Temperature: 82 F (28 C)
Dew Point: 77 F (25 C)
Relative Humidity: 83%
Pressure (altimeter): 29.94 in. Hg (1014 hPa)
ob: SBMN 250300Z 18002KT 9999 FEW025TCU 28/25 Q1014
cycle: 3

Station Type Date Time Source
SBMN TAF 2021/09/25 06:27 UTC NOAA

TAF TAF SBMN 250300Z 2506/2518 30007KT 9999 SCT025 FEW035TCU TN25/2508Z TX31/2518Z PROB40 2513/2515 5000 TSRA SCT012 BKN015 FEW030CB
RMK PDP

Example: see airport list